sensor_id;sensor_type;location;lat;lon;timestamp;pressure;altitude;pressure_sealevel;temperature;humidity
35892;BME280;21993;42.672;23.296;2023-09-19T00:00:40;95086.88;;;20.44;55.94
35892;BME280;21993;42.672;23.296;2023-09-19T00:03:06;95085.25;;;20.43;56.24
35892;BME280;21993;42.672;23.296;2023-09-19T00:05:36;95082.56;;;20.43;55.78
35892;BME280;21993;42.672;23.296;2023-09-19T00:08:02;95084.28;;;20.36;56.25
35892;BME280;21993;42.672;23.296;2023-09-19T00:10:29;95094.78;;;20.38;56.08
35892;BME280;21993;42.672;23.296;2023-09-19T00:12:59;95094.28;;;20.34;56.29
35892;BME280;21993;42.672;23.296;2023-09-19T00:15:26;95089.94;;;20.27;56.66
35892;BME280;21993;42.672;23.296;2023-09-19T00:17:56;95097.19;;;20.18;57.13
35892;BME280;21993;42.672;23.296;2023-09-19T00:20:22;95085.03;;;20.15;57.67
35892;BME280;21993;42.672;23.296;2023-09-19T00:22:50;95088.44;;;20.09;58.34
35892;BME280;21993;42.672;23.296;2023-09-19T00:25:20;95080.19;;;20.04;57.99
35892;BME280;21993;42.672;23.296;2023-09-19T00:27:46;95075.88;;;20.03;58.21
35892;BME280;21993;42.672;23.296;2023-09-19T00:30:13;95085.22;;;19.99;58.47
35892;BME280;21993;42.672;23.296;2023-09-19T00:32:45;95070.44;;;19.96;58.34
35892;BME280;21993;42.672;23.296;2023-09-19T00:35:13;95075.41;;;20.00;58.31
35892;BME280;21993;42.672;23.296;2023-09-19T00:37:40;95065.41;;;20.02;58.66
35892;BME280;21993;42.672;23.296;2023-09-19T00:40:10;95061.53;;;20.04;58.36
35892;BME280;21993;42.672;23.296;2023-09-19T00:42:40;95070.25;;;19.98;58.90
35892;BME280;21993;42.672;23.296;2023-09-19T00:45:10;95072.91;;;19.98;58.66
35892;BME280;21993;42.672;23.296;2023-09-19T00:47:41;95074.03;;;19.89;58.72
35892;BME280;21993;42.672;23.296;2023-09-19T00:50:08;95074.59;;;19.84;58.75
35892;BME280;21993;42.672;23.296;2023-09-19T00:52:38;95068.97;;;19.79;59.61
35892;BME280;21993;42.672;23.296;2023-09-19T00:55:06;95071.81;;;19.78;59.41
35892;BME280;21993;42.672;23.296;2023-09-19T00:57:33;95075.66;;;19.75;59.47
35892;BME280;21993;42.672;23.296;2023-09-19T01:00:00;95072.09;;;19.68;59.78
35892;BME280;21993;42.672;23.296;2023-09-19T01:02:31;95075.31;;;19.63;59.34
35892;BME280;21993;42.672;23.296;2023-09-19T01:04:57;95074.09;;;19.66;59.44
35892;BME280;21993;42.672;23.296;2023-09-19T01:07:23;95068.31;;;19.62;59.75
35892;BME280;21993;42.672;23.296;2023-09-19T01:09:49;95072.19;;;19.60;59.63
35892;BME280;21993;42.672;23.296;2023-09-19T01:12:19;95063.00;;;19.62;59.56
35892;BME280;21993;42.672;23.296;2023-09-19T01:14:54;95075.84;;;19.59;59.36
35892;BME280;21993;42.672;23.296;2023-09-19T01:17:46;95067.69;;;19.60;59.68
35892;BME280;21993;42.672;23.296;2023-09-19T01:23:38;95081.25;;;19.51;59.69
35892;BME280;21993;42.672;23.296;2023-09-19T01:32:06;95071.56;;;19.50;59.78
35892;BME280;21993;42.672;23.296;2023-09-19T01:35:07;95069.28;;;19.47;60.19
35892;BME280;21993;42.672;23.296;2023-09-19T01:37:37;95076.31;;;19.39;60.52
35892;BME280;21993;42.672;23.296;2023-09-19T01:40:14;95068.34;;;19.39;60.33
35892;BME280;21993;42.672;23.296;2023-09-19T01:48:25;95073.41;;;19.34;60.90
35892;BME280;21993;42.672;23.296;2023-09-19T01:51:14;95066.75;;;19.30;60.85
35892;BME280;21993;42.672;23.296;2023-09-19T01:54:00;95072.66;;;19.26;61.25
35892;BME280;21993;42.672;23.296;2023-09-19T01:56:32;95077.97;;;19.26;61.20
35892;BME280;21993;42.672;23.296;2023-09-19T01:59:06;95072.72;;;19.18;61.72
35892;BME280;21993;42.672;23.296;2023-09-19T02:01:33;95075.47;;;19.24;61.36
35892;BME280;21993;42.672;23.296;2023-09-19T02:04:00;95083.00;;;19.21;61.79
35892;BME280;21993;42.672;23.296;2023-09-19T02:06:26;95076.91;;;19.12;61.95
35892;BME280;21993;42.672;23.296;2023-09-19T02:08:54;95075.72;;;19.15;61.74
35892;BME280;21993;42.672;23.296;2023-09-19T02:11:19;95083.69;;;19.15;61.87
35892;BME280;21993;42.672;23.296;2023-09-19T02:13:45;95077.56;;;19.14;61.47
35892;BME280;21993;42.672;23.296;2023-09-19T02:16:10;95073.13;;;19.06;62.03
35892;BME280;21993;42.672;23.296;2023-09-19T02:18:37;95073.13;;;19.06;62.06
35892;BME280;21993;42.672;23.296;2023-09-19T02:21:04;95072.09;;;19.07;62.03
35892;BME280;21993;42.672;23.296;2023-09-19T02:23:32;95075.78;;;19.06;62.30
35892;BME280;21993;42.672;23.296;2023-09-19T02:25:59;95071.28;;;19.07;62.34
35892;BME280;21993;42.672;23.296;2023-09-19T02:28:28;95060.19;;;19.03;62.17
35892;BME280;21993;42.672;23.296;2023-09-19T02:30:58;95063.78;;;18.88;62.43
35892;BME280;21993;42.672;23.296;2023-09-19T02:33:24;95057.78;;;18.94;62.66
35892;BME280;21993;42.672;23.296;2023-09-19T02:35:49;95067.22;;;18.96;62.72
35892;BME280;21993;42.672;23.296;2023-09-19T02:38:15;95059.25;;;18.96;62.58
35892;BME280;21993;42.672;23.296;2023-09-19T02:40:46;95052.63;;;18.92;62.66
35892;BME280;21993;42.672;23.296;2023-09-19T02:43:11;95053.84;;;18.81;62.85
35892;BME280;21993;42.672;23.296;2023-09-19T02:45:37;95056.06;;;18.78;62.89
35892;BME280;21993;42.672;23.296;2023-09-19T02:48:03;95051.63;;;18.70;63.39
35892;BME280;21993;42.672;23.296;2023-09-19T02:50:29;95052.81;;;18.68;63.44
35892;BME280;21993;42.672;23.296;2023-09-19T02:52:55;95045.47;;;18.70;63.54
35892;BME280;21993;42.672;23.296;2023-09-19T02:55:21;95041.44;;;18.74;63.26
35892;BME280;21993;42.672;23.296;2023-09-19T02:57:51;95043.28;;;18.73;63.12
35892;BME280;21993;42.672;23.296;2023-09-19T03:00:18;95047.78;;;18.73;63.06
35892;BME280;21993;42.672;23.296;2023-09-19T03:02:50;95042.16;;;18.68;63.10
35892;BME280;21993;42.672;23.296;2023-09-19T03:05:16;95039.50;;;18.68;63.20
35892;BME280;21993;42.672;23.296;2023-09-19T03:07:41;95038.00;;;18.65;63.25
35892;BME280;21993;42.672;23.296;2023-09-19T03:10:09;95028.34;;;18.64;63.12
35892;BME280;21993;42.672;23.296;2023-09-19T03:12:34;95028.91;;;18.60;63.21
35892;BME280;21993;42.672;23.296;2023-09-19T03:15:00;95032.56;;;18.59;63.15
35892;BME280;21993;42.672;23.296;2023-09-19T03:17:26;95039.03;;;18.56;63.49
35892;BME280;21993;42.672;23.296;2023-09-19T03:19:51;95024.91;;;18.55;63.13
35892;BME280;21993;42.672;23.296;2023-09-19T03:22:17;95028.94;;;18.51;63.37
35892;BME280;21993;42.672;23.296;2023-09-19T03:24:43;95028.81;;;18.45;63.59
35892;BME280;21993;42.672;23.296;2023-09-19T03:27:09;95026.53;;;18.42;64.09
35892;BME280;21993;42.672;23.296;2023-09-19T03:29:35;95034.50;;;18.42;64.02
35892;BME280;21993;42.672;23.296;2023-09-19T03:32:01;95023.19;;;18.40;63.89
35892;BME280;21993;42.672;23.296;2023-09-19T03:34:27;95031.41;;;18.30;64.02
35892;BME280;21993;42.672;23.296;2023-09-19T03:36:52;95039.03;;;18.33;63.97
35892;BME280;21993;42.672;23.296;2023-09-19T03:39:17;95033.88;;;18.32;63.78
35892;BME280;21993;42.672;23.296;2023-09-19T03:41:43;95037.53;;;18.31;64.16
35892;BME280;21993;42.672;23.296;2023-09-19T03:44:09;95044.34;;;18.33;64.03
35892;BME280;21993;42.672;23.296;2023-09-19T03:46:34;95042.66;;;18.32;64.33
35892;BME280;21993;42.672;23.296;2023-09-19T03:49:01;95050.19;;;18.28;64.66
35892;BME280;21993;42.672;23.296;2023-09-19T03:51:26;95051.00;;;18.29;64.73
35892;BME280;21993;42.672;23.296;2023-09-19T03:53:52;95055.69;;;18.27;64.89
35892;BME280;21993;42.672;23.296;2023-09-19T03:56:17;95055.34;;;18.22;64.95
35892;BME280;21993;42.672;23.296;2023-09-19T03:58:42;95057.72;;;18.17;64.96
35892;BME280;21993;42.672;23.296;2023-09-19T04:01:08;95050.09;;;18.14;65.29
35892;BME280;21993;42.672;23.296;2023-09-19T04:03:34;95051.41;;;18.18;65.35
35892;BME280;21993;42.672;23.296;2023-09-19T04:06:10;95056.38;;;18.21;65.13
35892;BME280;21993;42.672;23.296;2023-09-19T04:08:35;95056.38;;;18.21;64.97
35892;BME280;21993;42.672;23.296;2023-09-19T04:11:01;95067.16;;;18.19;64.67
35892;BME280;21993;42.672;23.296;2023-09-19T04:13:26;95064.69;;;18.18;64.69
35892;BME280;21993;42.672;23.296;2023-09-19T04:15:52;95076.84;;;18.12;65.13
35892;BME280;21993;42.672;23.296;2023-09-19T04:18:17;95067.22;;;18.11;65.21
35892;BME280;21993;42.672;23.296;2023-09-19T04:20:50;95072.69;;;18.10;65.32
35892;BME280;21993;42.672;23.296;2023-09-19T04:23:16;95071.56;;;18.04;65.63
35892;BME280;21993;42.672;23.296;2023-09-19T04:25:42;95058.91;;;18.06;65.55
35892;BME280;21993;42.672;23.296;2023-09-19T04:28:08;95055.94;;;18.09;65.63
35892;BME280;21993;42.672;23.296;2023-09-19T04:30:35;95059.25;;;18.11;65.47
35892;BME280;21993;42.672;23.296;2023-09-19T04:33:01;95059.59;;;18.08;65.44
35892;BME280;21993;42.672;23.296;2023-09-19T04:35:28;95056.94;;;18.08;65.85
35892;BME280;21993;42.672;23.296;2023-09-19T04:37:57;95056.25;;;18.06;65.72
35892;BME280;21993;42.672;23.296;2023-09-19T04:40:22;95061.44;;;18.08;65.90
35892;BME280;21993;42.672;23.296;2023-09-19T04:42:59;95059.91;;;18.05;66.21
35892;BME280;21993;42.672;23.296;2023-09-19T04:45:28;95056.41;;;18.13;65.88
35892;BME280;21993;42.672;23.296;2023-09-19T04:47:54;95056.59;;;18.11;66.12
35892;BME280;21993;42.672;23.296;2023-09-19T04:50:21;95050.91;;;18.14;65.85
35892;BME280;21993;42.672;23.296;2023-09-19T04:52:51;95060.53;;;18.15;66.08
35892;BME280;21993;42.672;23.296;2023-09-19T04:55:17;95052.19;;;18.26;65.91
35892;BME280;21993;42.672;23.296;2023-09-19T04:57:45;95041.88;;;18.23;65.91
35892;BME280;21993;42.672;23.296;2023-09-19T05:00:15;95047.88;;;18.25;65.96
35892;BME280;21993;42.672;23.296;2023-09-19T05:02:42;95046.56;;;18.21;65.73
35892;BME280;21993;42.672;23.296;2023-09-19T05:05:08;95038.69;;;18.36;65.26
35892;BME280;21993;42.672;23.296;2023-09-19T05:07:36;95042.84;;;18.31;65.36
35892;BME280;21993;42.672;23.296;2023-09-19T05:10:02;95043.50;;;18.33;65.31
35892;BME280;21993;42.672;23.296;2023-09-19T05:12:32;95047.13;;;18.40;65.41
35892;BME280;21993;42.672;23.296;2023-09-19T05:14:57;95044.19;;;18.35;65.68
35892;BME280;21993;42.672;23.296;2023-09-19T05:17:23;95039.56;;;18.28;66.02
35892;BME280;21993;42.672;23.296;2023-09-19T05:19:49;95044.63;;;18.38;66.11
35892;BME280;21993;42.672;23.296;2023-09-19T05:22:15;95047.34;;;18.30;66.34
35892;BME280;21993;42.672;23.296;2023-09-19T05:24:40;95050.53;;;18.25;66.48
35892;BME280;21993;42.672;23.296;2023-09-19T05:27:06;95051.16;;;18.36;66.07
35892;BME280;21993;42.672;23.296;2023-09-19T05:29:32;95042.88;;;18.53;65.46
35892;BME280;21993;42.672;23.296;2023-09-19T05:31:59;95035.09;;;18.52;65.76
35892;BME280;21993;42.672;23.296;2023-09-19T05:34:24;95033.00;;;18.70;65.43
35892;BME280;21993;42.672;23.296;2023-09-19T05:36:53;95028.13;;;18.74;65.02
35892;BME280;21993;42.672;23.296;2023-09-19T05:39:19;95037.13;;;18.96;63.97
35892;BME280;21993;42.672;23.296;2023-09-19T05:41:45;95027.13;;;18.98;63.92
35892;BME280;21993;42.672;23.296;2023-09-19T05:44:13;95026.31;;;18.97;63.59
35892;BME280;21993;42.672;23.296;2023-09-19T05:46:39;95019.97;;;18.98;63.96
35892;BME280;21993;42.672;23.296;2023-09-19T05:49:04;95019.16;;;18.98;64.02
35892;BME280;21993;42.672;23.296;2023-09-19T05:51:30;95023.19;;;19.08;63.27
35892;BME280;21993;42.672;23.296;2023-09-19T05:53:56;95018.81;;;19.01;63.82
35892;BME280;21993;42.672;23.296;2023-09-19T05:56:21;95025.78;;;19.02;63.91
35892;BME280;21993;42.672;23.296;2023-09-19T05:58:47;95028.22;;;19.26;62.35
35892;BME280;21993;42.672;23.296;2023-09-19T06:01:13;95022.72;;;19.28;62.32
35892;BME280;21993;42.672;23.296;2023-09-19T06:03:38;95013.97;;;19.19;62.62
35892;BME280;21993;42.672;23.296;2023-09-19T06:06:04;95020.66;;;19.15;62.94
35892;BME280;21993;42.672;23.296;2023-09-19T06:08:34;95011.50;;;19.18;63.19
35892;BME280;21993;42.672;23.296;2023-09-19T06:11:00;95019.22;;;19.42;61.64
35892;BME280;21993;42.672;23.296;2023-09-19T06:13:28;95013.53;;;19.30;62.34
35892;BME280;21993;42.672;23.296;2023-09-19T06:15:55;95006.53;;;19.29;62.81
35892;BME280;21993;42.672;23.296;2023-09-19T06:18:21;95015.28;;;19.38;62.72
35892;BME280;21993;42.672;23.296;2023-09-19T06:20:51;95014.34;;;19.31;62.82
35892;BME280;21993;42.672;23.296;2023-09-19T06:23:17;95004.72;;;19.45;62.32
35892;BME280;21993;42.672;23.296;2023-09-19T06:25:43;95000.69;;;19.49;62.63
35892;BME280;21993;42.672;23.296;2023-09-19T06:28:09;95000.28;;;19.60;62.50
35892;BME280;21993;42.672;23.296;2023-09-19T06:30:38;94989.50;;;19.83;61.76
35892;BME280;21993;42.672;23.296;2023-09-19T06:33:05;94999.72;;;19.79;61.29
35892;BME280;21993;42.672;23.296;2023-09-19T06:35:33;95000.34;;;19.96;61.29
35892;BME280;21993;42.672;23.296;2023-09-19T06:37:58;95002.69;;;20.06;60.07
35892;BME280;21993;42.672;23.296;2023-09-19T06:40:24;95009.06;;;20.05;60.35
35892;BME280;21993;42.672;23.296;2023-09-19T06:42:53;95004.53;;;20.05;60.19
35892;BME280;21993;42.672;23.296;2023-09-19T06:45:19;94997.28;;;19.99;60.64
35892;BME280;21993;42.672;23.296;2023-09-19T06:47:48;95000.53;;;19.94;60.69
35892;BME280;21993;42.672;23.296;2023-09-19T06:50:20;95007.03;;;19.92;61.42
35892;BME280;21993;42.672;23.296;2023-09-19T06:52:48;95002.63;;;19.99;61.56
35892;BME280;21993;42.672;23.296;2023-09-19T06:55:18;95017.56;;;20.15;60.46
35892;BME280;21993;42.672;23.296;2023-09-19T06:57:45;95011.22;;;20.16;60.26
35892;BME280;21993;42.672;23.296;2023-09-19T07:00:12;95012.13;;;20.23;59.96
35892;BME280;21993;42.672;23.296;2023-09-19T07:03:05;95015.81;;;20.22;59.52
35892;BME280;21993;42.672;23.296;2023-09-19T07:05:34;95012.66;;;20.33;59.12
35892;BME280;21993;42.672;23.296;2023-09-19T07:08:05;95019.59;;;20.28;60.17
35892;BME280;21993;42.672;23.296;2023-09-19T07:10:32;95013.59;;;20.25;60.16
35892;BME280;21993;42.672;23.296;2023-09-19T07:12:59;95008.84;;;20.42;60.11
35892;BME280;21993;42.672;23.296;2023-09-19T07:15:26;95014.06;;;20.44;59.36
35892;BME280;21993;42.672;23.296;2023-09-19T07:17:52;95011.06;;;20.54;59.73
35892;BME280;21993;42.672;23.296;2023-09-19T07:20:22;95018.19;;;20.68;58.75
35892;BME280;21993;42.672;23.296;2023-09-19T07:22:51;95019.50;;;20.57;59.04
35892;BME280;21993;42.672;23.296;2023-09-19T07:25:17;95015.91;;;20.65;59.13
35892;BME280;21993;42.672;23.296;2023-09-19T07:27:43;95019.44;;;20.50;59.50
35892;BME280;21993;42.672;23.296;2023-09-19T07:30:10;95025.06;;;20.77;58.44
35892;BME280;21993;42.672;23.296;2023-09-19T07:32:37;95018.72;;;20.78;57.86
35892;BME280;21993;42.672;23.296;2023-09-19T07:35:03;95027.28;;;20.73;58.89
35892;BME280;21993;42.672;23.296;2023-09-19T07:37:31;95017.50;;;20.80;58.24
35892;BME280;21993;42.672;23.296;2023-09-19T07:40:02;95016.66;;;20.80;58.45
35892;BME280;21993;42.672;23.296;2023-09-19T07:42:33;95014.91;;;20.87;58.73
35892;BME280;21993;42.672;23.296;2023-09-19T07:45:00;95014.81;;;20.80;58.52
35892;BME280;21993;42.672;23.296;2023-09-19T07:47:26;95013.75;;;20.75;58.46
35892;BME280;21993;42.672;23.296;2023-09-19T07:49:52;95017.94;;;20.84;59.56
35892;BME280;21993;42.672;23.296;2023-09-19T07:52:18;95019.97;;;20.82;59.24
35892;BME280;21993;42.672;23.296;2023-09-19T07:54:44;95022.19;;;21.00;58.40
35892;BME280;21993;42.672;23.296;2023-09-19T07:57:10;95017.16;;;20.90;58.60
35892;BME280;21993;42.672;23.296;2023-09-19T07:59:37;95023.97;;;20.93;58.64
35892;BME280;21993;42.672;23.296;2023-09-19T08:02:04;95031.00;;;21.00;58.91
35892;BME280;21993;42.672;23.296;2023-09-19T08:04:30;95023.28;;;21.05;58.21
35892;BME280;21993;42.672;23.296;2023-09-19T08:06:58;95020.41;;;21.07;57.57
35892;BME280;21993;42.672;23.296;2023-09-19T08:09:24;95005.00;;;21.09;58.48
35892;BME280;21993;42.672;23.296;2023-09-19T08:11:49;94994.31;;;21.02;58.44
35892;BME280;21993;42.672;23.296;2023-09-19T08:14:16;94999.31;;;21.12;58.59
35892;BME280;21993;42.672;23.296;2023-09-19T08:16:41;94997.19;;;21.07;58.28
35892;BME280;21993;42.672;23.296;2023-09-19T08:19:09;94997.31;;;21.21;58.31
35892;BME280;21993;42.672;23.296;2023-09-19T08:21:36;94997.63;;;21.32;57.66
35892;BME280;21993;42.672;23.296;2023-09-19T08:24:02;94997.69;;;21.39;57.24
35892;BME280;21993;42.672;23.296;2023-09-19T08:26:30;94990.88;;;21.37;57.35
35892;BME280;21993;42.672;23.296;2023-09-19T08:28:56;94995.22;;;21.38;57.49
35892;BME280;21993;42.672;23.296;2023-09-19T08:31:22;94989.47;;;21.41;57.50
35892;BME280;21993;42.672;23.296;2023-09-19T08:33:50;94996.81;;;21.32;57.50
35892;BME280;21993;42.672;23.296;2023-09-19T08:36:16;94999.06;;;21.35;57.46
35892;BME280;21993;42.672;23.296;2023-09-19T08:38:42;95008.38;;;21.39;57.92
35892;BME280;21993;42.672;23.296;2023-09-19T08:41:08;95001.22;;;21.81;56.37
35892;BME280;21993;42.672;23.296;2023-09-19T08:43:34;94996.66;;;21.75;56.84
35892;BME280;21993;42.672;23.296;2023-09-19T08:48:32;94985.81;;;21.83;56.85
35892;BME280;21993;42.672;23.296;2023-09-19T08:51:06;94988.47;;;21.83;56.49
35892;BME280;21993;42.672;23.296;2023-09-19T08:53:41;94986.06;;;21.88;56.24
35892;BME280;21993;42.672;23.296;2023-09-19T08:56:10;94988.94;;;21.93;55.95
35892;BME280;21993;42.672;23.296;2023-09-19T08:58:44;94990.03;;;22.05;55.42
35892;BME280;21993;42.672;23.296;2023-09-19T09:01:14;94978.06;;;21.95;56.08
35892;BME280;21993;42.672;23.296;2023-09-19T09:03:42;94981.91;;;21.85;56.88
35892;BME280;21993;42.672;23.296;2023-09-19T09:06:13;94974.16;;;21.97;56.65
35892;BME280;21993;42.672;23.296;2023-09-19T09:08:40;94976.44;;;22.00;56.42
35892;BME280;21993;42.672;23.296;2023-09-19T09:11:07;94976.66;;;22.05;56.14
35892;BME280;21993;42.672;23.296;2023-09-19T09:13:35;94976.94;;;22.17;56.34
35892;BME280;21993;42.672;23.296;2023-09-19T09:16:01;94977.38;;;22.21;56.13
35892;BME280;21993;42.672;23.296;2023-09-19T09:18:28;94974.50;;;22.22;56.40
35892;BME280;21993;42.672;23.296;2023-09-19T09:20:55;94963.19;;;22.27;55.83
35892;BME280;21993;42.672;23.296;2023-09-19T09:23:21;94961.53;;;22.26;56.17
35892;BME280;21993;42.672;23.296;2023-09-19T09:28:19;94961.19;;;22.55;55.63
35892;BME280;21993;42.672;23.296;2023-09-19T09:30:45;94961.84;;;22.70;55.04
35892;BME280;21993;42.672;23.296;2023-09-19T09:33:12;94957.50;;;22.63;54.57
35892;BME280;21993;42.672;23.296;2023-09-19T09:38:20;94930.72;;;22.69;54.74
35892;BME280;21993;42.672;23.296;2023-09-19T09:40:50;94940.25;;;22.79;54.33
35892;BME280;21993;42.672;23.296;2023-09-19T09:43:35;94936.53;;;22.86;54.87
35892;BME280;21993;42.672;23.296;2023-09-19T09:46:20;94937.38;;;23.00;53.95
35892;BME280;21993;42.672;23.296;2023-09-19T09:52:07;94924.81;;;23.14;53.91
35892;BME280;21993;42.672;23.296;2023-09-19T09:54:58;94915.91;;;23.40;53.01
35892;BME280;21993;42.672;23.296;2023-09-19T09:57:25;94915.69;;;23.35;53.70
35892;BME280;21993;42.672;23.296;2023-09-19T09:59:58;94929.69;;;23.43;53.15
35892;BME280;21993;42.672;23.296;2023-09-19T10:02:40;94920.63;;;23.44;52.58
35892;BME280;21993;42.672;23.296;2023-09-19T10:05:13;94926.41;;;23.35;53.64
35892;BME280;21993;42.672;23.296;2023-09-19T10:07:39;94916.88;;;23.58;52.45
35892;BME280;21993;42.672;23.296;2023-09-19T10:10:08;94920.63;;;23.64;52.32
35892;BME280;21993;42.672;23.296;2023-09-19T10:12:48;94918.34;;;23.48;52.77
35892;BME280;21993;42.672;23.296;2023-09-19T10:15:18;94920.81;;;23.49;53.15
35892;BME280;21993;42.672;23.296;2023-09-19T10:17:46;94922.03;;;23.53;52.66
35892;BME280;21993;42.672;23.296;2023-09-19T10:20:18;94911.75;;;23.64;52.16
35892;BME280;21993;42.672;23.296;2023-09-19T10:23:09;94912.34;;;23.59;52.20
35892;BME280;21993;42.672;23.296;2023-09-19T10:25:41;94915.44;;;23.63;51.93
35892;BME280;21993;42.672;23.296;2023-09-19T10:28:09;94915.06;;;23.46;52.36
35892;BME280;21993;42.672;23.296;2023-09-19T10:30:46;94908.41;;;23.68;51.96
35892;BME280;21993;42.672;23.296;2023-09-19T10:33:17;94903.47;;;23.72;51.75
35892;BME280;21993;42.672;23.296;2023-09-19T10:35:47;94901.38;;;23.80;51.25
35892;BME280;21993;42.672;23.296;2023-09-19T10:38:19;94905.34;;;23.71;51.52
35892;BME280;21993;42.672;23.296;2023-09-19T10:40:49;94910.06;;;23.69;51.81
35892;BME280;21993;42.672;23.296;2023-09-19T10:43:17;94911.34;;;23.60;52.14
35892;BME280;21993;42.672;23.296;2023-09-19T10:45:45;94904.53;;;23.64;52.76
35892;BME280;21993;42.672;23.296;2023-09-19T10:48:12;94900.97;;;23.70;52.06
35892;BME280;21993;42.672;23.296;2023-09-19T10:53:50;94892.09;;;23.76;51.80
35892;BME280;21993;42.672;23.296;2023-09-19T10:56:31;94885.28;;;23.80;51.24
35892;BME280;21993;42.672;23.296;2023-09-19T10:59:08;94889.84;;;23.73;51.42
35892;BME280;21993;42.672;23.296;2023-09-19T11:01:54;94890.59;;;23.87;51.03
35892;BME280;21993;42.672;23.296;2023-09-19T11:04:35;94890.22;;;23.83;51.04
35892;BME280;21993;42.672;23.296;2023-09-19T11:07:05;94889.41;;;23.76;51.75
35892;BME280;21993;42.672;23.296;2023-09-19T11:10:02;94892.09;;;23.76;52.00
35892;BME280;21993;42.672;23.296;2023-09-19T11:15:03;94876.78;;;23.90;51.72
35892;BME280;21993;42.672;23.296;2023-09-19T11:30:43;94867.34;;;24.12;50.78
35892;BME280;21993;42.672;23.296;2023-09-19T11:33:29;94857.59;;;24.25;50.34
35892;BME280;21993;42.672;23.296;2023-09-19T11:36:11;94856.44;;;24.14;50.69
35892;BME280;21993;42.672;23.296;2023-09-19T11:49:16;94824.13;;;24.27;51.69
35892;BME280;21993;42.672;23.296;2023-09-19T11:51:46;94828.25;;;24.30;51.14
35892;BME280;21993;42.672;23.296;2023-09-19T11:54:15;94822.50;;;24.26;51.26
35892;BME280;21993;42.672;23.296;2023-09-19T11:56:46;94831.47;;;24.45;50.76
35892;BME280;21993;42.672;23.296;2023-09-19T11:59:23;94826.28;;;24.50;51.29
35892;BME280;21993;42.672;23.296;2023-09-19T12:01:54;94827.16;;;24.44;51.89
35892;BME280;21993;42.672;23.296;2023-09-19T12:04:42;94824.38;;;24.57;50.41
35892;BME280;21993;42.672;23.296;2023-09-19T12:07:13;94817.19;;;24.51;50.58
35892;BME280;21993;42.672;23.296;2023-09-19T12:09:42;94803.66;;;24.64;50.77
35892;BME280;21993;42.672;23.296;2023-09-19T12:12:13;94801.72;;;24.71;49.68
35892;BME280;21993;42.672;23.296;2023-09-19T12:14:48;94805.78;;;24.81;49.07
35892;BME280;21993;42.672;23.296;2023-09-19T12:17:14;94797.44;;;24.89;48.58
35892;BME280;21993;42.672;23.296;2023-09-19T12:19:50;94802.13;;;24.93;48.81
35892;BME280;21993;42.672;23.296;2023-09-19T12:22:16;94796.59;;;24.88;48.51
35892;BME280;21993;42.672;23.296;2023-09-19T12:24:43;94786.75;;;24.82;49.66
35892;BME280;21993;42.672;23.296;2023-09-19T12:27:09;94774.81;;;24.78;49.69
35892;BME280;21993;42.672;23.296;2023-09-19T12:29:44;94784.88;;;24.83;48.78
35892;BME280;21993;42.672;23.296;2023-09-19T12:32:10;94769.44;;;24.78;49.55
35892;BME280;21993;42.672;23.296;2023-09-19T12:34:36;94765.28;;;25.01;48.66
35892;BME280;21993;42.672;23.296;2023-09-19T12:37:16;94771.56;;;25.13;48.47
35892;BME280;21993;42.672;23.296;2023-09-19T12:39:51;94773.59;;;25.17;48.66
35892;BME280;21993;42.672;23.296;2023-09-19T12:42:26;94763.97;;;25.28;47.96
35892;BME280;21993;42.672;23.296;2023-09-19T12:44:58;94762.53;;;25.25;48.31
35892;BME280;21993;42.672;23.296;2023-09-19T12:47:27;94769.09;;;25.48;47.95
35892;BME280;21993;42.672;23.296;2023-09-19T12:50:14;94764.09;;;25.51;47.61
35892;BME280;21993;42.672;23.296;2023-09-19T12:52:55;94768.44;;;25.34;48.35
35892;BME280;21993;42.672;23.296;2023-09-19T12:58:15;94763.06;;;25.34;48.60
35892;BME280;21993;42.672;23.296;2023-09-19T13:00:43;94757.97;;;25.44;47.59
35892;BME280;21993;42.672;23.296;2023-09-19T13:11:09;94745.56;;;25.43;48.66
35892;BME280;21993;42.672;23.296;2023-09-19T13:13:37;94752.59;;;25.44;48.32
35892;BME280;21993;42.672;23.296;2023-09-19T13:16:03;94745.44;;;25.68;48.34
35892;BME280;21993;42.672;23.296;2023-09-19T13:18:41;94742.53;;;25.70;48.11
35892;BME280;21993;42.672;23.296;2023-09-19T13:21:09;94731.66;;;25.65;48.28
35892;BME280;21993;42.672;23.296;2023-09-19T13:23:38;94723.06;;;25.74;47.93
35892;BME280;21993;42.672;23.296;2023-09-19T13:26:03;94714.47;;;25.66;48.00
35892;BME280;21993;42.672;23.296;2023-09-19T13:28:31;94717.91;;;25.73;48.40
35892;BME280;21993;42.672;23.296;2023-09-19T13:30:56;94714.44;;;25.84;48.17
35892;BME280;21993;42.672;23.296;2023-09-19T13:33:22;94714.59;;;26.01;47.56
35892;BME280;21993;42.672;23.296;2023-09-19T13:35:47;94719.72;;;25.91;48.06
35892;BME280;21993;42.672;23.296;2023-09-19T13:38:14;94722.44;;;26.02;47.91
35892;BME280;21993;42.672;23.296;2023-09-19T13:40:39;94723.47;;;25.90;48.13
35892;BME280;21993;42.672;23.296;2023-09-19T13:43:07;94720.41;;;25.98;47.85
35892;BME280;21993;42.672;23.296;2023-09-19T13:45:33;94723.22;;;25.91;48.05
35892;BME280;21993;42.672;23.296;2023-09-19T13:47:59;94714.22;;;25.97;47.67
35892;BME280;21993;42.672;23.296;2023-09-19T13:50:25;94710.25;;;26.00;47.55
35892;BME280;21993;42.672;23.296;2023-09-19T13:52:54;94711.66;;;26.02;47.75
35892;BME280;21993;42.672;23.296;2023-09-19T13:55:20;94712.56;;;25.96;47.84
35892;BME280;21993;42.672;23.296;2023-09-19T13:57:47;94716.00;;;26.03;47.83
35892;BME280;21993;42.672;23.296;2023-09-19T14:00:15;94711.91;;;26.01;47.21
35892;BME280;21993;42.672;23.296;2023-09-19T14:02:42;94708.97;;;25.91;48.28
35892;BME280;21993;42.672;23.296;2023-09-19T14:05:11;94705.78;;;25.94;47.68